Aviation Digital Data Service (ADDS)

Output produced by TAFs form (2032 UTC 02 March 2015)
found at http://aviationweather.gov/adds/tafs/
 
KAEG 021746Z 0218/0318 03009KT P6SM BKN120 
     FM022100 16016G25KT P6SM VCSH SCT030 BKN045 
     FM030300 30014G22KT 5SM SHRA BR OVC020